Time;durP1;ratioP1;P1;durP2;ratioP2;P2;SDS_P1;SDS_P2;PMS_P1;PMS_P2;Temp;Humidity;BMP_temperature;BMP_pressure;BME280_temperature;BME280_humidity;BME280_pressure;Samples;Min_cycle;Max_cycle;Signal;HPM_P1;HPM_P2
2024/01/13 00:01:04;;;;;;;50.80;26.73;;;;;;;;;;5073015;28;21140;-62
2024/01/13 00:03:32;;;;;;;51.93;26.03;;;;;;;;;;5085036;28;20711;-64
2024/01/13 00:06:00;;;;;;;52.40;27.27;;;;;;;;;;5082497;28;20208;-64
2024/01/13 00:08:28;;;;;;;51.53;26.87;;;;;;;;;;5082340;28;20201;-62
2024/01/13 00:11:04;;;;;;;40.27;21.90;;;;;;;;;;5080732;28;20270;-62
2024/01/13 00:13:31;;;;;;;42.43;21.53;;;;;;;;;;5080327;28;21178;-63
2024/01/13 00:15:59;;;;;;;39.13;21.10;;;;;;;;;;5088040;28;20284;-65
2024/01/13 00:18:27;;;;;;;40.00;21.77;;;;;;;;;;5088212;28;20213;-62
2024/01/13 00:21:06;;;;;;;47.60;22.83;;;;;;;;;;5086641;28;20768;-63
2024/01/13 00:23:34;;;;;;;38.33;21.17;;;;;;;;;;5084875;28;20275;-63
2024/01/13 00:26:01;;;;;;;39.90;22.17;;;;;;;;;;5079687;28;20209;-64
2024/01/13 00:28:29;;;;;;;41.50;22.73;;;;;;;;;;5080924;28;20201;-63
2024/01/13 00:31:04;;;;;;;38.87;21.17;;;;;;;;;;5084867;28;20221;-64
2024/01/13 00:33:32;;;;;;;39.63;22.97;;;;;;;;;;5082539;28;20221;-62
2024/01/13 00:36:00;;;;;;;41.00;21.00;;;;;;;;;;5081216;28;20295;-64
2024/01/13 00:38:27;;;;;;;34.73;21.10;;;;;;;;;;5083820;28;20212;-62
2024/01/13 00:41:03;;;;;;;39.50;20.50;;;;;;;;;;5082123;28;20322;-65
2024/01/13 00:43:32;;;;;;;38.23;21.13;;;;;;;;;;5082297;28;20986;-62
2024/01/13 00:46:00;;;;;;;43.00;22.53;;;;;;;;;;5082525;28;20204;-64
2024/01/13 00:48:27;;;;;;;41.23;22.17;;;;;;;;;;5087100;28;20201;-65
2024/01/13 00:51:07;;;;;;;40.30;21.27;;;;;;;;;;5087407;28;20841;-63
2024/01/13 00:53:35;;;;;;;40.17;21.00;;;;;;;;;;5083963;28;20216;-62
2024/01/13 00:56:03;;;;;;;41.87;22.53;;;;;;;;;;5078397;28;20688;-63
2024/01/13 00:58:31;;;;;;;37.53;21.00;;;;;;;;;;5076998;28;20201;-61
2024/01/13 01:01:10;;;;;;;39.83;21.87;;;;;;;;;;5066178;28;20225;-61
2024/01/13 01:03:38;;;;;;;38.93;22.20;;;;;;;;;;5081475;28;20818;-62
2024/01/13 01:06:06;;;;;;;40.60;20.67;;;;;;;;;;5081819;28;20227;-62
2024/01/13 01:08:33;;;;;;;42.17;23.03;;;;;;;;;;5077187;28;20200;-63
2024/01/13 01:11:07;;;;;;;42.83;22.53;;;;;;;;;;5079809;28;20216;-65
2024/01/13 01:13:35;;;;;;;43.40;22.90;;;;;;;;;;5077111;28;20209;-62
2024/01/13 01:16:02;;;;;;;48.50;24.37;;;;;;;;;;5081383;28;20328;-63
2024/01/13 01:18:29;;;;;;;39.83;21.60;;;;;;;;;;5083103;28;20205;-64
2024/01/13 01:21:00;;;;;;;39.73;21.43;;;;;;;;;;5079051;28;20229;-63
2024/01/13 01:23:27;;;;;;;43.70;23.57;;;;;;;;;;5084588;28;20686;-63
2024/01/13 01:25:54;;;;;;;39.83;22.37;;;;;;;;;;5079501;28;20570;-63
2024/01/13 01:28:22;;;;;;;46.50;22.67;;;;;;;;;;5075870;28;20200;-63
2024/01/13 01:31:00;;;;;;;54.87;24.07;;;;;;;;;;5078199;28;20665;-64
2024/01/13 01:33:27;;;;;;;42.70;23.53;;;;;;;;;;5077415;28;20208;-63
2024/01/13 01:35:55;;;;;;;49.17;25.20;;;;;;;;;;5081553;28;20207;-63
2024/01/13 01:38:23;;;;;;;45.60;22.87;;;;;;;;;;5086890;28;20204;-63
2024/01/13 01:41:08;;;;;;;48.53;22.77;;;;;;;;;;5080490;28;20224;-63
2024/01/13 01:43:36;;;;;;;48.73;24.53;;;;;;;;;;5078791;28;20238;-63
2024/01/13 01:46:04;;;;;;;44.70;23.83;;;;;;;;;;5079231;28;20207;-63
2024/01/13 01:48:41;;;;;;;51.90;24.57;;;;;;;;;;5083735;28;20200;-64
2024/01/13 01:51:12;;;;;;;54.33;24.77;;;;;;;;;;5084121;28;20216;-64
2024/01/13 01:53:40;;;;;;;48.33;24.63;;;;;;;;;;5082834;28;20209;-64
2024/01/13 01:56:12;;;;;;;50.93;26.00;;;;;;;;;;5087891;28;20350;-66
2024/01/13 01:58:40;;;;;;;50.07;24.67;;;;;;;;;;5078621;28;20208;-65
2024/01/13 02:01:08;;;;;;;54.50;26.20;;;;;;;;;;5082357;28;20217;-64
2024/01/13 02:03:37;;;;;;;49.93;25.00;;;;;;;;;;5082902;28;20219;-63
2024/01/13 02:06:05;;;;;;;52.77;25.33;;;;;;;;;;5085683;28;20227;-63
2024/01/13 02:08:33;;;;;;;56.67;27.40;;;;;;;;;;5082519;28;20208;-64
2024/01/13 02:11:10;;;;;;;52.47;25.80;;;;;;;;;;5083439;28;20223;-64
2024/01/13 02:13:38;;;;;;;54.27;27.03;;;;;;;;;;5077815;28;20209;-63
2024/01/13 02:16:07;;;;;;;45.53;24.33;;;;;;;;;;5034157;28;1340144;-63
2024/01/13 02:18:34;;;;;;;53.97;26.20;;;;;;;;;;5079825;28;20214;-64
2024/01/13 02:21:08;;;;;;;49.23;24.47;;;;;;;;;;5086396;28;20857;-64
2024/01/13 02:23:36;;;;;;;47.67;23.53;;;;;;;;;;5082041;28;20685;-63
2024/01/13 02:26:03;;;;;;;52.47;25.77;;;;;;;;;;5086415;28;20288;-63
2024/01/13 02:28:31;;;;;;;49.00;24.93;;;;;;;;;;5086704;28;20219;-64
2024/01/13 02:31:14;;;;;;;49.40;24.63;;;;;;;;;;5084039;28;20224;-63
2024/01/13 02:33:44;;;;;;;46.13;23.27;;;;;;;;;;5084976;28;20192;-64
2024/01/13 02:36:12;;;;;;;47.00;24.50;;;;;;;;;;5088434;28;20229;-63
2024/01/13 02:38:39;;;;;;;46.17;23.93;;;;;;;;;;5083521;28;20223;-63
2024/01/13 02:41:07;;;;;;;48.33;24.10;;;;;;;;;;5082197;28;20255;-64
2024/01/13 02:43:35;;;;;;;52.07;25.57;;;;;;;;;;5085708;28;20216;-64
2024/01/13 02:46:03;;;;;;;47.93;23.80;;;;;;;;;;5086164;28;20205;-64
2024/01/13 02:48:35;;;;;;;46.83;23.13;;;;;;;;;;5086748;28;20646;-63
2024/01/13 02:51:07;;;;;;;43.57;21.93;;;;;;;;;;5086577;28;20273;-64
2024/01/13 02:53:35;;;;;;;42.73;23.07;;;;;;;;;;5085076;28;20226;-63
2024/01/13 02:56:02;;;;;;;48.50;22.97;;;;;;;;;;5083578;28;20213;-63
2024/01/13 02:58:29;;;;;;;45.63;23.43;;;;;;;;;;5086766;28;20648;-63
2024/01/13 03:01:09;;;;;;;44.33;23.30;;;;;;;;;;5086003;28;20234;-63
2024/01/13 03:03:37;;;;;;;49.53;22.47;;;;;;;;;;5088050;28;20706;-63
2024/01/13 03:06:06;;;;;;;46.57;23.80;;;;;;;;;;5081973;28;20201;-63
2024/01/13 03:08:35;;;;;;;47.90;23.10;;;;;;;;;;5085435;28;20204;-63
2024/01/13 03:11:08;;;;;;;48.00;22.70;;;;;;;;;;5084151;28;20307;-63
2024/01/13 03:13:37;;;;;;;43.07;22.53;;;;;;;;;;5085189;28;20270;-62
2024/01/13 03:16:05;;;;;;;48.37;22.67;;;;;;;;;;5083728;28;20264;-63
2024/01/13 03:18:33;;;;;;;44.97;22.27;;;;;;;;;;5086224;28;20206;-63
2024/01/13 03:21:08;;;;;;;43.07;21.37;;;;;;;;;;5084337;28;20310;-62
2024/01/13 03:23:35;;;;;;;42.60;21.83;;;;;;;;;;5086634;28;20653;-62
2024/01/13 03:26:03;;;;;;;47.07;23.50;;;;;;;;;;5085349;28;20197;-63
2024/01/13 03:28:30;;;;;;;46.00;21.33;;;;;;;;;;5086382;28;20211;-64
2024/01/13 03:31:08;;;;;;;42.97;22.07;;;;;;;;;;5082484;28;20288;-62
2024/01/13 03:33:37;;;;;;;41.63;20.53;;;;;;;;;;5083259;28;20608;-62
2024/01/13 03:36:04;;;;;;;42.20;20.83;;;;;;;;;;5087546;28;20209;-63
2024/01/13 03:38:32;;;;;;;42.20;21.70;;;;;;;;;;5088408;28;20253;-62
2024/01/13 03:41:09;;;;;;;39.53;21.47;;;;;;;;;;5085831;28;20334;-64
2024/01/13 03:43:36;;;;;;;39.23;20.67;;;;;;;;;;5085985;28;20259;-65
2024/01/13 03:46:04;;;;;;;43.73;22.40;;;;;;;;;;5085919;28;20197;-64
2024/01/13 03:48:31;;;;;;;41.27;21.00;;;;;;;;;;5085573;28;20198;-63
2024/01/13 03:50:59;;;;;;;45.53;23.40;;;;;;;;;;5081935;28;20604;-63
2024/01/13 03:53:31;;;;;;;47.97;23.37;;;;;;;;;;5084279;28;20203;-63
2024/01/13 03:55:59;;;;;;;49.90;25.83;;;;;;;;;;5085872;28;20259;-63
2024/01/13 03:58:26;;;;;;;52.53;24.67;;;;;;;;;;5087286;28;20207;-61
2024/01/13 04:00:53;;;;;;;39.83;21.27;;;;;;;;;;5086757;28;20273;-63
2024/01/13 04:03:21;;;;;;;45.53;21.83;;;;;;;;;;5089433;28;20695;-64
2024/01/13 04:05:49;;;;;;;40.40;21.87;;;;;;;;;;5085999;28;20204;-62
2024/01/13 04:08:17;;;;;;;43.93;21.90;;;;;;;;;;5090301;28;20760;-63
2024/01/13 04:10:45;;;;;;;45.30;21.47;;;;;;;;;;5086595;28;20602;-62
2024/01/13 04:13:15;;;;;;;41.47;21.37;;;;;;;;;;5085895;28;20227;-61
2024/01/13 04:15:43;;;;;;;38.50;19.80;;;;;;;;;;5082654;28;20217;-63
2024/01/13 04:18:10;;;;;;;47.93;22.00;;;;;;;;;;5083466;28;20235;-63
2024/01/13 04:20:38;;;;;;;41.17;21.17;;;;;;;;;;5084625;28;22082;-62
2024/01/13 04:23:05;;;;;;;42.83;22.57;;;;;;;;;;5083060;28;20196;-62
2024/01/13 04:25:33;;;;;;;39.10;20.07;;;;;;;;;;5084443;28;20233;-62
2024/01/13 04:28:01;;;;;;;41.03;20.97;;;;;;;;;;5084423;28;20680;-62
2024/01/13 04:30:29;;;;;;;41.60;20.23;;;;;;;;;;5080457;28;20793;-64
2024/01/13 04:32:57;;;;;;;44.83;22.27;;;;;;;;;;5086017;28;20207;-63
2024/01/13 04:35:26;;;;;;;42.33;21.77;;;;;;;;;;5081831;28;20211;-62
2024/01/13 04:37:54;;;;;;;42.87;21.63;;;;;;;;;;5082830;28;20257;-62
2024/01/13 04:40:21;;;;;;;39.17;20.30;;;;;;;;;;5082266;28;20208;-62
2024/01/13 04:42:49;;;;;;;39.53;21.07;;;;;;;;;;5087227;28;20206;-62
2024/01/13 04:45:16;;;;;;;39.30;20.60;;;;;;;;;;5083709;28;20225;-63
2024/01/13 04:47:44;;;;;;;37.90;21.30;;;;;;;;;;5083853;28;20248;-63
2024/01/13 04:50:12;;;;;;;43.83;22.53;;;;;;;;;;5080693;28;20196;-62
2024/01/13 04:52:40;;;;;;;45.70;21.67;;;;;;;;;;5083916;28;20302;-62
2024/01/13 04:55:08;;;;;;;44.77;21.30;;;;;;;;;;5065856;28;21057;-62
2024/01/13 04:57:36;;;;;;;37.80;21.57;;;;;;;;;;5074130;28;20199;-63
2024/01/13 05:00:04;;;;;;;40.40;20.27;;;;;;;;;;5073624;28;20207;-62
2024/01/13 05:02:33;;;;;;;40.03;21.43;;;;;;;;;;5083515;28;20222;-62
2024/01/13 05:05:12;;;;;;;42.70;21.63;;;;;;;;;;5085475;28;20302;-61
2024/01/13 05:07:41;;;;;;;42.03;21.00;;;;;;;;;;5082377;28;20207;-62
2024/01/13 05:10:08;;;;;;;37.73;19.53;;;;;;;;;;5086741;28;20200;-62
2024/01/13 05:12:36;;;;;;;36.47;21.00;;;;;;;;;;5079492;28;20860;-62
2024/01/13 05:15:03;;;;;;;39.47;19.20;;;;;;;;;;5085707;28;20217;-63
2024/01/13 05:17:31;;;;;;;48.90;20.90;;;;;;;;;;5086904;28;20213;-63
2024/01/13 05:19:58;;;;;;;41.70;20.17;;;;;;;;;;5082118;28;20296;-62
2024/01/13 05:22:26;;;;;;;39.27;21.23;;;;;;;;;;5082388;28;20234;-63
2024/01/13 05:24:53;;;;;;;39.43;20.57;;;;;;;;;;5084313;28;20221;-63
2024/01/13 05:27:21;;;;;;;40.93;20.53;;;;;;;;;;5083879;28;20210;-62
2024/01/13 05:29:48;;;;;;;40.60;19.87;;;;;;;;;;5082794;28;20655;-62
2024/01/13 05:32:15;;;;;;;35.07;19.67;;;;;;;;;;5083635;28;20314;-62
2024/01/13 05:34:43;;;;;;;44.77;20.07;;;;;;;;;;5082046;28;20197;-64
2024/01/13 05:37:10;;;;;;;38.90;21.10;;;;;;;;;;5085241;28;20834;-62
2024/01/13 05:39:38;;;;;;;40.63;22.67;;;;;;;;;;5082339;28;20202;-64
2024/01/13 05:42:07;;;;;;;45.63;21.97;;;;;;;;;;5085427;28;20278;-63
2024/01/13 05:44:35;;;;;;;47.53;23.13;;;;;;;;;;5068133;28;20289;-62
2024/01/13 05:47:02;;;;;;;44.33;22.87;;;;;;;;;;5083890;28;20643;-63
2024/01/13 05:49:29;;;;;;;45.73;22.40;;;;;;;;;;5088085;28;20347;-63
2024/01/13 05:51:57;;;;;;;46.17;22.00;;;;;;;;;;5085799;28;20316;-63
2024/01/13 05:54:24;;;;;;;45.80;22.67;;;;;;;;;;5085715;28;20206;-64
2024/01/13 05:56:52;;;;;;;53.60;24.80;;;;;;;;;;5079657;28;20207;-63
2024/01/13 05:59:19;;;;;;;37.27;20.53;;;;;;;;;;5082147;28;20212;-62
2024/01/13 06:01:47;;;;;;;40.37;19.40;;;;;;;;;;5068400;28;20224;-62
2024/01/13 06:04:15;;;;;;;33.07;17.53;;;;;;;;;;5080620;28;20304;-62
2024/01/13 06:06:43;;;;;;;43.87;19.87;;;;;;;;;;5083157;28;20209;-63
2024/01/13 06:09:11;;;;;;;56.08;34.15;;;;;;;;;;5083614;28;20512;-62
2024/01/13 06:11:42;;;;;;;47.00;23.90;;;;;;;;;;5082709;28;20264;-62
2024/01/13 06:14:10;;;;;;;39.90;21.10;;;;;;;;;;5068972;28;20206;-63
2024/01/13 06:16:37;;;;;;;42.03;21.97;;;;;;;;;;5081265;28;20222;-63
2024/01/13 06:19:05;;;;;;;40.47;20.07;;;;;;;;;;5081740;28;20687;-62
2024/01/13 06:21:33;;;;;;;37.67;18.87;;;;;;;;;;5089055;28;20280;-62
2024/01/13 06:24:00;;;;;;;35.90;19.03;;;;;;;;;;5081754;28;20229;-62
2024/01/13 06:26:27;;;;;;;38.70;21.27;;;;;;;;;;5077470;28;20201;-63
2024/01/13 06:28:55;;;;;;;39.70;21.90;;;;;;;;;;5064978;28;20651;-62
2024/01/13 06:31:22;;;;;;;41.70;20.37;;;;;;;;;;5082103;28;20221;-63
2024/01/13 06:33:51;;;;;;;41.90;20.77;;;;;;;;;;5061256;28;20624;-62
2024/01/13 06:36:23;;;;;;;44.17;21.83;;;;;;;;;;5076575;28;20225;-62
2024/01/13 06:38:50;;;;;;;46.20;21.93;;;;;;;;;;5060940;28;20209;-61
2024/01/13 06:41:18;;;;;;;35.77;19.47;;;;;;;;;;5078392;28;20347;-62
2024/01/13 06:43:45;;;;;;;39.60;21.13;;;;;;;;;;5073680;28;20756;-62
2024/01/13 06:46:12;;;;;;;45.77;22.07;;;;;;;;;;5075589;28;20206;-62
2024/01/13 06:48:40;;;;;;;44.80;21.73;;;;;;;;;;5074112;28;20628;-62
2024/01/13 06:51:07;;;;;;;46.20;22.50;;;;;;;;;;5071566;28;20611;-62
2024/01/13 06:53:34;;;;;;;45.60;22.50;;;;;;;;;;5080997;28;20732;-63
2024/01/13 06:56:02;;;;;;;48.60;23.07;;;;;;;;;;5066519;28;22865;-63
2024/01/13 06:58:29;;;;;;;47.53;23.43;;;;;;;;;;5076753;28;20656;-62
2024/01/13 07:00:58;;;;;;;38.73;20.77;;;;;;;;;;5082467;28;20225;-63
2024/01/13 07:03:27;;;;;;;40.73;21.00;;;;;;;;;;5084593;28;20548;-64
2024/01/13 07:05:55;;;;;;;41.17;22.93;;;;;;;;;;5082487;28;20287;-63
2024/01/13 07:08:22;;;;;;;60.30;27.73;;;;;;;;;;5079062;28;20239;-63
2024/01/13 07:10:51;;;;;;;52.23;23.60;;;;;;;;;;5082583;28;20227;-61
2024/01/13 07:13:18;;;;;;;46.00;21.97;;;;;;;;;;5077658;28;20213;-62
2024/01/13 07:15:46;;;;;;;45.83;22.03;;;;;;;;;;5082371;28;20209;-62
2024/01/13 07:18:13;;;;;;;42.47;22.27;;;;;;;;;;5090171;28;20932;-63
2024/01/13 07:20:40;;;;;;;47.73;22.80;;;;;;;;;;5084537;28;20300;-64
2024/01/13 07:23:08;;;;;;;43.73;22.53;;;;;;;;;;5081213;28;20206;-65
2024/01/13 07:25:35;;;;;;;42.97;22.80;;;;;;;;;;5083809;28;20220;-62
2024/01/13 07:28:03;;;;;;;40.17;22.27;;;;;;;;;;5086139;28;20199;-65
2024/01/13 07:30:30;;;;;;;41.67;22.53;;;;;;;;;;5083661;28;20225;-62
2024/01/13 07:32:57;;;;;;;41.97;20.37;;;;;;;;;;5086228;28;20297;-63
2024/01/13 07:35:26;;;;;;;48.47;24.97;;;;;;;;;;5089855;28;20210;-63
2024/01/13 07:37:53;;;;;;;45.23;23.33;;;;;;;;;;5084228;28;20242;-62
2024/01/13 07:40:21;;;;;;;42.13;21.60;;;;;;;;;;5088960;28;20258;-64
2024/01/13 07:42:49;;;;;;;37.87;20.03;;;;;;;;;;5087609;28;20271;-62
2024/01/13 07:45:17;;;;;;;42.70;21.93;;;;;;;;;;5087348;28;20609;-63
2024/01/13 07:47:44;;;;;;;52.63;23.70;;;;;;;;;;5085909;28;20207;-63
2024/01/13 07:50:12;;;;;;;53.50;23.97;;;;;;;;;;5088241;28;20202;-63
2024/01/13 07:52:39;;;;;;;41.67;21.93;;;;;;;;;;5071171;28;20231;-63
2024/01/13 07:55:08;;;;;;;45.07;21.50;;;;;;;;;;5080381;28;20223;-64
2024/01/13 07:57:36;;;;;;;51.60;26.33;;;;;;;;;;5086498;28;20625;-63
2024/01/13 08:00:03;;;;;;;44.17;21.77;;;;;;;;;;5085715;28;20724;-62
2024/01/13 08:02:31;;;;;;;40.30;21.20;;;;;;;;;;5087558;28;20764;-63
2024/01/13 08:04:58;;;;;;;43.37;20.90;;;;;;;;;;5072443;28;20319;-64
2024/01/13 08:07:26;;;;;;;42.03;22.10;;;;;;;;;;5087981;28;20687;-63
2024/01/13 08:09:53;;;;;;;45.67;21.53;;;;;;;;;;5090011;28;20230;-65
2024/01/13 08:12:20;;;;;;;44.00;21.63;;;;;;;;;;5090998;28;20778;-64
2024/01/13 08:14:48;;;;;;;42.43;21.43;;;;;;;;;;5090106;28;20302;-62
2024/01/13 08:17:15;;;;;;;37.37;20.17;;;;;;;;;;5089829;28;20216;-62
2024/01/13 08:19:43;;;;;;;47.03;21.47;;;;;;;;;;5087106;28;20205;-62
2024/01/13 08:22:10;;;;;;;54.93;27.47;;;;;;;;;;5087439;28;20274;-63
2024/01/13 08:24:37;;;;;;;58.03;29.00;;;;;;;;;;5067490;28;20235;-63
2024/01/13 08:27:05;;;;;;;73.07;36.73;;;;;;;;;;5070941;28;20206;-62
2024/01/13 08:29:32;;;;;;;67.80;34.40;;;;;;;;;;5084384;28;20278;-63
2024/01/13 08:32:00;;;;;;;49.80;25.67;;;;;;;;;;5090999;28;20277;-64
2024/01/13 08:34:27;;;;;;;49.50;25.60;;;;;;;;;;5086961;28;20260;-64
2024/01/13 08:36:55;;;;;;;49.70;26.37;;;;;;;;;;5079054;28;20232;-64
2024/01/13 08:39:22;;;;;;;50.57;25.30;;;;;;;;;;5085470;28;20614;-63
2024/01/13 08:41:49;;;;;;;43.57;23.10;;;;;;;;;;5086359;28;20288;-63
2024/01/13 08:44:17;;;;;;;43.83;23.17;;;;;;;;;;5087653;28;20201;-63
2024/01/13 08:46:44;;;;;;;38.60;19.80;;;;;;;;;;5084550;28;20208;-63
2024/01/13 08:49:13;;;;;;;44.40;21.90;;;;;;;;;;5080552;28;20490;-64
2024/01/13 08:51:40;;;;;;;44.23;23.20;;;;;;;;;;5079789;28;20233;-63
2024/01/13 08:54:08;;;;;;;40.40;21.33;;;;;;;;;;5082687;28;20211;-64
2024/01/13 08:56:36;;;;;;;43.37;22.07;;;;;;;;;;5081186;28;20553;-61
2024/01/13 08:59:06;;;;;;;43.70;23.60;;;;;;;;;;5088421;28;20540;-64
2024/01/13 09:01:34;;;;;;;47.23;25.20;;;;;;;;;;5089049;28;20220;-64
2024/01/13 09:04:06;;;;;;;43.50;22.77;;;;;;;;;;5069447;28;20208;-62
2024/01/13 09:06:33;;;;;;;45.53;22.73;;;;;;;;;;5086170;28;20235;-63
2024/01/13 09:09:01;;;;;;;41.17;22.30;;;;;;;;;;5085167;28;20605;-63
2024/01/13 09:11:29;;;;;;;39.07;20.47;;;;;;;;;;5086282;28;20231;-64
2024/01/13 09:14:09;;;;;;;39.80;20.27;;;;;;;;;;5089170;28;20205;-64
2024/01/13 09:16:36;;;;;;;38.77;19.30;;;;;;;;;;5083314;28;20258;-64
2024/01/13 09:19:04;;;;;;;41.70;21.80;;;;;;;;;;5079932;28;20622;-64
2024/01/13 09:21:32;;;;;;;41.40;22.47;;;;;;;;;;5086746;28;20296;-63
2024/01/13 09:24:09;;;;;;;41.97;21.13;;;;;;;;;;5086250;28;20236;-63
2024/01/13 09:26:41;;;;;;;42.60;21.30;;;;;;;;;;5086214;28;20228;-62
2024/01/13 09:29:15;;;;;;;39.73;21.20;;;;;;;;;;5087941;28;20222;-62
2024/01/13 09:31:45;;;;;;;38.07;21.37;;;;;;;;;;5083124;28;20221;-64
2024/01/13 09:34:12;;;;;;;44.33;21.83;;;;;;;;;;5064173;28;20193;-63
2024/01/13 09:36:44;;;;;;;35.43;19.33;;;;;;;;;;5086763;28;20197;-65
2024/01/13 09:39:19;;;;;;;34.97;18.63;;;;;;;;;;5086031;28;20471;-64
2024/01/13 09:41:47;;;;;;;40.23;21.57;;;;;;;;;;5086380;28;20220;-64
2024/01/13 09:44:21;;;;;;;42.00;22.87;;;;;;;;;;5083924;28;20213;-64
2024/01/13 09:46:51;;;;;;;40.23;21.60;;;;;;;;;;5083869;28;20740;-62
2024/01/13 09:49:19;;;;;;;38.70;21.47;;;;;;;;;;5084155;28;20315;-62
2024/01/13 09:51:47;;;;;;;38.90;21.27;;;;;;;;;;5084988;28;20239;-63
2024/01/13 09:54:35;;;;;;;36.40;20.50;;;;;;;;;;5087789;28;20209;-65
2024/01/13 09:57:03;;;;;;;37.70;20.23;;;;;;;;;;5088140;28;20201;-63
2024/01/13 09:59:30;;;;;;;36.20;20.47;;;;;;;;;;5082821;28;20565;-64
2024/01/13 10:02:02;;;;;;;39.53;21.23;;;;;;;;;;5088456;28;20225;-64
2024/01/13 10:04:36;;;;;;;47.80;24.63;;;;;;;;;;5064665;28;20757;-63
2024/01/13 10:07:05;;;;;;;44.83;24.83;;;;;;;;;;5074628;28;20223;-63
2024/01/13 10:09:33;;;;;;;36.10;21.03;;;;;;;;;;5076825;28;20312;-64
2024/01/13 10:12:06;;;;;;;31.50;19.63;;;;;;;;;;5077755;28;20704;-62
2024/01/13 10:14:40;;;;;;;30.03;17.80;;;;;;;;;;5080349;28;20284;-63
2024/01/13 10:17:11;;;;;;;24.73;16.20;;;;;;;;;;5081609;28;20216;-63
2024/01/13 10:19:41;;;;;;;27.50;17.77;;;;;;;;;;5076803;28;20440;-63
2024/01/13 10:22:09;;;;;;;25.97;16.30;;;;;;;;;;5076921;28;20236;-63
2024/01/13 10:24:38;;;;;;;24.80;16.80;;;;;;;;;;5064724;28;20200;-63
2024/01/13 10:27:08;;;;;;;27.47;16.13;;;;;;;;;;5067543;28;20323;-63
2024/01/13 10:29:37;;;;;;;27.87;17.20;;;;;;;;;;5082980;28;20197;-63
2024/01/13 10:32:08;;;;;;;24.27;15.60;;;;;;;;;;5082854;28;20230;-64
2024/01/13 10:34:37;;;;;;;25.60;16.33;;;;;;;;;;5083821;28;20196;-63
2024/01/13 10:37:09;;;;;;;24.77;16.27;;;;;;;;;;5085731;28;20208;-62
2024/01/13 10:39:38;;;;;;;29.33;16.57;;;;;;;;;;5081347;28;20722;-62
2024/01/13 10:42:09;;;;;;;25.83;17.00;;;;;;;;;;5080206;28;20312;-62
2024/01/13 10:44:56;;;;;;;23.57;15.83;;;;;;;;;;5082301;28;20205;-64
2024/01/13 10:47:29;;;;;;;24.00;16.60;;;;;;;;;;5088173;28;20205;-64
2024/01/13 10:49:57;;;;;;;23.90;15.47;;;;;;;;;;5088821;28;20254;-64
2024/01/13 10:52:38;;;;;;;22.03;14.97;;;;;;;;;;5070597;28;20221;-63
2024/01/13 10:55:08;;;;;;;22.33;15.00;;;;;;;;;;5087417;28;20193;-62
2024/01/13 10:57:37;;;;;;;23.60;15.77;;;;;;;;;;5088950;28;20735;-64
2024/01/13 11:00:07;;;;;;;24.47;15.30;;;;;;;;;;5085374;28;20205;-63
2024/01/13 11:02:36;;;;;;;22.30;14.37;;;;;;;;;;5082087;28;20227;-63
2024/01/13 11:05:04;;;;;;;20.73;14.40;;;;;;;;;;5081680;28;20666;-63
2024/01/13 11:07:32;;;;;;;19.83;14.13;;;;;;;;;;5084920;28;22001;-64
2024/01/13 11:10:00;;;;;;;25.80;15.57;;;;;;;;;;5083508;28;20276;-64
2024/01/13 11:12:30;;;;;;;25.23;14.90;;;;;;;;;;5085138;28;20244;-64
2024/01/13 11:15:27;;;;;;;24.10;14.33;;;;;;;;;;5081089;28;20255;-64
2024/01/13 11:17:54;;;;;;;20.50;14.03;;;;;;;;;;5061258;28;20215;-63
2024/01/13 11:20:22;;;;;;;22.73;14.07;;;;;;;;;;5087389;28;20205;-64
2024/01/13 11:22:59;;;;;;;22.97;13.83;;;;;;;;;;5082556;28;20224;-64
2024/01/13 11:25:28;;;;;;;20.50;13.20;;;;;;;;;;5087366;28;20219;-63
2024/01/13 11:28:00;;;;;;;22.60;13.80;;;;;;;;;;5081214;28;20710;-62
2024/01/13 11:30:38;;;;;;;21.00;13.67;;;;;;;;;;5080369;28;20196;-63
2024/01/13 11:33:11;;;;;;;19.60;13.03;;;;;;;;;;5080427;28;20220;-62
2024/01/13 11:35:39;;;;;;;19.17;13.20;;;;;;;;;;5067418;28;20254;-65
2024/01/13 11:38:07;;;;;;;21.20;13.73;;;;;;;;;;5070448;28;20220;-64
2024/01/13 11:40:35;;;;;;;20.33;12.43;;;;;;;;;;5083413;28;20201;-64
2024/01/13 11:43:18;;;;;;;20.67;12.90;;;;;;;;;;5080698;28;20423;-65
2024/01/13 11:45:48;;;;;;;18.73;12.10;;;;;;;;;;5082289;28;20221;-64
2024/01/13 11:48:31;;;;;;;20.53;12.43;;;;;;;;;;5073682;28;20194;-63
2024/01/13 11:50:59;;;;;;;21.70;12.73;;;;;;;;;;5077867;28;20225;-63
2024/01/13 11:53:39;;;;;;;19.67;12.93;;;;;;;;;;5087351;28;20220;-63
2024/01/13 11:56:08;;;;;;;21.67;11.33;;;;;;;;;;5086737;28;20197;-63
2024/01/13 11:58:36;;;;;;;20.47;12.40;;;;;;;;;;5088003;28;20200;-65
2024/01/13 12:01:04;;;;;;;17.70;11.67;;;;;;;;;;5080272;28;20232;-64
2024/01/13 12:03:32;;;;;;;17.30;11.70;;;;;;;;;;5087173;28;20213;-65
2024/01/13 12:06:03;;;;;;;20.83;12.40;;;;;;;;;;5082156;28;20220;-63
2024/01/13 12:08:31;;;;;;;20.43;12.20;;;;;;;;;;5086364;28;20209;-64
2024/01/13 12:10:58;;;;;;;19.30;13.07;;;;;;;;;;5083619;28;20245;-64
2024/01/13 12:13:26;;;;;;;19.93;12.63;;;;;;;;;;5084577;28;20205;-64
2024/01/13 12:16:03;;;;;;;19.33;12.63;;;;;;;;;;5065798;28;20219;-64
2024/01/13 12:18:31;;;;;;;19.50;11.83;;;;;;;;;;5087263;28;20201;-63
2024/01/13 12:21:00;;;;;;;21.80;13.30;;;;;;;;;;5086491;28;20717;-63
2024/01/13 12:23:28;;;;;;;18.70;12.67;;;;;;;;;;5076040;28;20213;-63
2024/01/13 12:25:56;;;;;;;17.47;12.00;;;;;;;;;;5073639;28;20364;-64
2024/01/13 12:28:43;;;;;;;19.70;13.07;;;;;;;;;;5081306;28;20232;-65
2024/01/13 12:31:17;;;;;;;21.73;13.00;;;;;;;;;;5077973;28;20583;-64
2024/01/13 12:33:53;;;;;;;19.07;12.17;;;;;;;;;;5077859;28;20246;-63
2024/01/13 12:36:20;;;;;;;18.30;11.57;;;;;;;;;;5078380;28;20201;-63
2024/01/13 12:38:52;;;;;;;18.77;12.23;;;;;;;;;;5080216;28;20299;-64
2024/01/13 12:41:20;;;;;;;19.37;12.40;;;;;;;;;;5078313;28;20221;-64
2024/01/13 12:43:48;;;;;;;18.50;11.87;;;;;;;;;;5067302;28;20214;-63
2024/01/13 12:46:15;;;;;;;18.60;12.47;;;;;;;;;;5080553;28;20221;-63
2024/01/13 12:48:44;;;;;;;17.93;12.37;;;;;;;;;;5079556;28;20201;-63
2024/01/13 12:51:20;;;;;;;18.10;12.07;;;;;;;;;;5081359;28;20217;-63
2024/01/13 12:53:48;;;;;;;19.07;11.57;;;;;;;;;;5078428;28;20200;-63
2024/01/13 12:56:17;;;;;;;16.87;11.43;;;;;;;;;;5070565;28;20292;-64
2024/01/13 12:58:46;;;;;;;20.83;12.47;;;;;;;;;;5083768;28;20204;-63
2024/01/13 13:01:13;;;;;;;16.63;11.83;;;;;;;;;;5067575;28;20245;-64
2024/01/13 13:03:43;;;;;;;22.03;13.30;;;;;;;;;;5087970;28;20204;-64
2024/01/13 13:06:12;;;;;;;21.93;12.97;;;;;;;;;;5080306;28;20220;-63
2024/01/13 13:08:40;;;;;;;19.17;12.20;;;;;;;;;;5082495;28;20247;-64
2024/01/13 13:11:10;;;;;;;19.90;12.87;;;;;;;;;;5082199;28;20224;-64
2024/01/13 13:13:37;;;;;;;20.80;13.13;;;;;;;;;;5079440;28;20213;-62
2024/01/13 13:16:05;;;;;;;22.80;13.80;;;;;;;;;;5076594;28;20685;-64
2024/01/13 13:18:33;;;;;;;21.33;13.03;;;;;;;;;;5060670;28;20197;-65
2024/01/13 13:21:01;;;;;;;24.20;14.60;;;;;;;;;;5075930;28;20546;-64
2024/01/13 13:23:28;;;;;;;20.37;13.33;;;;;;;;;;5071936;28;20726;-62
2024/01/13 13:25:56;;;;;;;21.07;13.90;;;;;;;;;;5077471;28;20238;-64
2024/01/13 13:28:23;;;;;;;26.70;15.13;;;;;;;;;;5082278;28;20322;-62
2024/01/13 13:30:51;;;;;;;21.57;13.93;;;;;;;;;;5068703;28;20716;-62
2024/01/13 13:33:18;;;;;;;22.63;14.27;;;;;;;;;;5078331;28;20200;-63
2024/01/13 13:35:46;;;;;;;23.17;13.87;;;;;;;;;;5080032;28;20206;-63
2024/01/13 13:38:13;;;;;;;39.70;25.97;;;;;;;;;;5065818;28;20197;-63
2024/01/13 13:40:41;;;;;;;21.93;13.93;;;;;;;;;;5081114;28;20208;-63
2024/01/13 13:43:09;;;;;;;21.47;13.83;;;;;;;;;;5080427;28;20211;-65
2024/01/13 13:45:39;;;;;;;21.57;13.70;;;;;;;;;;5080060;28;20196;-63
2024/01/13 13:48:06;;;;;;;20.63;13.60;;;;;;;;;;5082188;28;20324;-65
2024/01/13 13:50:35;;;;;;;21.73;13.47;;;;;;;;;;5083313;28;20201;-65
2024/01/13 13:53:05;;;;;;;20.30;12.43;;;;;;;;;;5065182;28;20210;-64
2024/01/13 13:55:34;;;;;;;20.30;13.10;;;;;;;;;;5081089;28;20204;-65
2024/01/13 13:58:02;;;;;;;23.20;13.67;;;;;;;;;;5066507;28;20216;-63
2024/01/13 14:00:29;;;;;;;20.93;13.10;;;;;;;;;;5082276;28;20232;-64
2024/01/13 14:02:56;;;;;;;20.67;13.33;;;;;;;;;;5081618;28;20295;-63
2024/01/13 14:05:24;;;;;;;23.40;13.80;;;;;;;;;;5082501;28;20278;-63
2024/01/13 14:07:51;;;;;;;24.07;14.17;;;;;;;;;;5084481;28;20220;-64
2024/01/13 14:10:18;;;;;;;21.17;13.80;;;;;;;;;;5082743;28;20212;-65
2024/01/13 14:12:46;;;;;;;21.20;14.17;;;;;;;;;;5079176;28;20228;-64
2024/01/13 14:15:14;;;;;;;38.83;19.57;;;;;;;;;;5081619;28;20203;-65
2024/01/13 14:17:47;;;;;;;31.73;17.03;;;;;;;;;;5086877;28;20219;-63
2024/01/13 14:20:15;;;;;;;24.83;14.50;;;;;;;;;;5085737;28;20205;-64
2024/01/13 14:22:49;;;;;;;19.53;12.90;;;;;;;;;;5070484;28;20282;-64
2024/01/13 14:25:18;;;;;;;24.03;14.73;;;;;;;;;;5085064;28;20200;-63
2024/01/13 14:27:47;;;;;;;22.53;14.00;;;;;;;;;;5090947;28;20228;-64